Pleasant Hill, Texas
Current Conditions -  °F | °C
As of 4:53 PM on Saturday 20 Dec 2014 (Local Time) from KLFK Reporting Station
Overcast Overcast  
Wind Chill: 55°   Ceiling: 2400
Heat Index: 55°   Visibility: 10mi
Dew Point: 44°   Wind: 3mph
Humidity: 67%   Direction: 10°N
Pressure: 30.16"   Gusts: NA
Location:  31.024°N, 94.7686°W
Report Text: KLFK 202253Z AUTO 01003KT 10SM OVC024 13/07 A3016 RMK AO2 SLP213 T01280067
Loading
Personal Weather Stations






























Interactive Weather Map New forecast layout! Learn more

10-Day Weather Forecast

Advertisements
Track Severe Weather on mobile